Time;durP1;ratioP1;P1;durP2;ratioP2;P2;SDS_P1;SDS_P2;PMS_P1;PMS_P2;Temp;Humidity;BMP_temperature;BMP_pressure;BME280_temperature;BME280_humidity;BME280_pressure;Samples;Min_cycle;Max_cycle;Signal;HPM_P1;HPM_P2
2023/04/18 00:00:04;;;;;;;;;58.50;46.50;;;;;13.28;58.26;101834.03;5029644;28;45093;-63
2023/04/18 00:02:31;;;;;;;;;59.25;46.00;;;;;13.29;58.09;101835.88;5023479;28;45753;-63
2023/04/18 00:04:57;;;;;;;;;58.00;45.25;;;;;13.25;58.38;101836.66;5025946;28;45756;-62
2023/04/18 00:07:22;;;;;;;;;64.25;47.75;;;;;13.22;58.91;101832.06;5029107;28;44908;-62
2023/04/18 00:09:47;;;;;;;;;61.25;47.25;;;;;13.18;58.70;101826.53;5030277;28;44995;-63
2023/04/18 00:12:13;;;;;;;;;64.50;49.00;;;;;13.17;58.67;101827.44;5031788;28;45304;-63
2023/04/18 00:14:39;;;;;;;;;62.75;49.75;;;;;13.12;58.80;101812.94;5029962;28;45885;-63
2023/04/18 00:17:09;;;;;;;;;61.75;48.75;;;;;13.13;59.15;101825.47;5015666;28;45247;-64
2023/04/18 00:19:36;;;;;;;;;67.75;49.25;;;;;13.03;59.07;101822.53;5008074;28;45252;-63
2023/04/18 00:22:01;;;;;;;;;64.50;50.75;;;;;12.97;58.87;101826.72;5026405;28;45461;-63
2023/04/18 00:24:27;;;;;;;;;58.50;44.25;;;;;12.89;59.28;101818.44;5016978;28;46122;-63
2023/04/18 00:26:52;;;;;;;;;67.25;50.25;;;;;12.86;59.32;101819.25;4998867;28;45059;-62
2023/04/18 00:29:17;;;;;;;;;62.00;47.25;;;;;12.77;60.06;101805.53;5023948;28;45118;-63
2023/04/18 00:31:43;;;;;;;;;62.75;49.00;;;;;12.78;59.99;101817.16;5003169;28;45897;-62
2023/04/18 00:34:08;;;;;;;;;68.25;50.00;;;;;12.76;59.74;101816.22;5030636;28;46078;-62
2023/04/18 00:36:34;;;;;;;;;51.75;43.25;;;;;12.39;60.49;101754.19;5020077;28;45191;-62
2023/04/18 00:38:59;;;;;;;;;63.75;51.00;;;;;12.73;60.65;101814.31;5029410;28;49116;-62
2023/04/18 00:41:27;;;;;;;;;62.75;49.00;;;;;12.69;60.26;101813.31;5044373;28;45121;-62
2023/04/18 00:43:53;;;;;;;;;68.25;53.25;;;;;12.66;60.86;101807.84;5052456;28;45711;-63
2023/04/18 00:46:19;;;;;;;;;68.00;51.75;;;;;12.60;60.44;101801.34;5054194;28;44958;-63
2023/04/18 00:48:44;;;;;;;;;63.75;50.75;;;;;12.63;60.38;101806.81;5054144;28;45699;-63
2023/04/18 00:51:10;;;;;;;;;66.25;49.25;;;;;12.59;61.42;101803.13;5044665;28;45228;-63
2023/04/18 00:53:36;;;;;;;;;58.50;46.00;;;;;12.55;61.36;101795.81;5049940;28;45275;-63
2023/04/18 00:56:02;;;;;;;;;67.75;51.50;;;;;12.57;60.70;101798.56;5045187;28;45068;-62
2023/04/18 00:58:28;;;;;;;;;67.00;50.75;;;;;12.57;61.38;101790.50;5051579;28;45143;-63
2023/04/18 01:00:53;;;;;;;;;66.25;51.00;;;;;12.59;61.08;101802.19;5050137;28;45824;-61
2023/04/18 01:03:21;;;;;;;;;69.50;52.00;;;;;12.54;61.15;101783.28;5050769;28;45546;-62
2023/04/18 01:05:47;;;;;;;;;66.50;52.75;;;;;12.56;60.81;101792.28;5039921;28;45053;-63
2023/04/18 01:08:13;;;;;;;;;73.00;53.25;;;;;12.51;60.80;101778.72;5046202;28;45112;-63
2023/04/18 01:10:38;;;;;;;;;68.25;51.50;;;;;12.58;60.87;101786.97;5054702;28;45258;-62
2023/04/18 01:13:18;;;;;;;;;64.50;48.75;;;;;12.57;60.84;101793.19;5049054;28;45144;-63
2023/04/18 01:15:45;;;;;;;;;72.00;51.50;;;;;12.57;61.26;101782.47;5041788;28;45065;-63
2023/04/18 01:18:12;;;;;;;;;61.00;49.25;;;;;12.58;61.82;101786.97;5054210;28;45180;-62
2023/04/18 01:20:45;;;;;;;;;63.75;51.75;;;;;12.57;61.20;101779.78;5042611;28;45288;-64
2023/04/18 01:23:11;;;;;;;;;71.50;53.25;;;;;12.48;60.61;101767.88;5054330;28;45132;-63
2023/04/18 01:25:37;;;;;;;;;69.75;53.00;;;;;12.55;61.37;101777.06;5049242;28;45021;-62
2023/04/18 01:28:03;;;;;;;;;67.25;52.25;;;;;12.47;61.49;101771.44;5050809;28;44903;-61
2023/04/18 01:30:28;;;;;;;;;68.25;51.75;;;;;12.57;60.62;101774.44;5047769;28;44943;-63
2023/04/18 01:32:54;;;;;;;;;64.00;49.25;;;;;12.57;60.46;101766.38;5019916;28;46412;-62
2023/04/18 01:35:19;;;;;;;;;66.50;52.00;;;;;12.50;60.80;101758.13;5052133;28;45135;-64
2023/04/18 01:37:45;;;;;;;;;71.75;53.50;;;;;12.56;60.84;101778.88;5051876;28;45163;-63
2023/04/18 01:40:10;;;;;;;;;66.75;49.75;;;;;12.56;61.00;101778.88;5042532;28;44924;-63
2023/04/18 01:42:36;;;;;;;;;65.75;49.25;;;;;12.52;60.84;101761.78;5049411;28;46365;-62
2023/04/18 01:45:01;;;;;;;;;74.00;53.50;;;;;12.57;60.90;101764.59;5052988;28;44998;-62
2023/04/18 01:47:27;;;;;;;;;67.25;51.75;;;;;12.40;60.77;101744.38;5052435;28;45100;-62
2023/04/18 01:49:52;;;;;;;;;64.75;50.25;;;;;12.34;61.54;101745.97;5038248;28;45086;-63
2023/04/18 01:52:17;;;;;;;;;71.25;52.25;;;;;12.45;61.45;101769.56;5053791;28;45240;-61
2023/04/18 01:54:43;;;;;;;;;66.25;50.50;;;;;12.06;60.58;101705.66;5037209;28;45131;-62
2023/04/18 01:57:08;;;;;;;;;67.00;51.50;;;;;12.39;61.14;101762.22;5041694;28;45170;-61
2023/04/18 01:59:33;;;;;;;;;73.75;54.25;;;;;12.38;61.27;101762.16;5040240;28;45195;-63
2023/04/18 02:01:59;;;;;;;;;75.00;52.75;;;;;12.39;61.05;101764.91;5026644;28;45257;-63
2023/04/18 02:04:25;;;;;;;;;74.25;52.50;;;;;12.40;61.06;101765.81;5044659;28;44999;-61
2023/04/18 02:06:50;;;;;;;;;68.75;52.75;;;;;12.35;61.75;101752.25;5051045;28;45297;-63
2023/04/18 02:09:16;;;;;;;;;68.75;53.25;;;;;12.35;61.47;101766.53;5050775;28;44978;-63
2023/04/18 02:11:41;;;;;;;;;63.00;51.25;;;;;12.31;61.41;101761.94;5044612;28;45985;-62
2023/04/18 02:14:06;;;;;;;;;66.75;52.25;;;;;12.30;61.95;101772.59;5048546;28;49138;-62
2023/04/18 02:16:33;;;;;;;;;69.25;53.00;;;;;12.24;60.62;101754.56;5047345;28;45001;-63
2023/04/18 02:18:59;;;;;;;;;69.75;50.25;;;;;12.33;60.86;101765.56;5050903;28;45061;-64
2023/04/18 02:21:24;;;;;;;;;74.25;53.75;;;;;12.30;61.78;101762.78;5049286;28;46081;-62
2023/04/18 02:23:49;;;;;;;;;67.50;53.00;;;;;12.31;61.57;101753.91;5027420;28;49144;-62
2023/04/18 02:26:15;;;;;;;;;69.25;53.00;;;;;12.30;61.19;101753.84;5045987;28;45058;-63
2023/04/18 02:28:40;;;;;;;;;74.00;52.50;;;;;12.24;60.74;101748.25;5050015;28;45334;-62
2023/04/18 02:31:06;;;;;;;;;65.50;51.50;;;;;12.23;61.49;101749.13;5048139;28;55130;-63
2023/04/18 02:33:32;;;;;;;;;70.50;52.50;;;;;12.17;61.11;101748.03;5049793;28;45506;-63
2023/04/18 02:35:57;;;;;;;;;69.00;52.00;;;;;12.28;61.40;101758.25;5049380;28;45458;-63
2023/04/18 02:38:22;;;;;;;;;68.00;52.75;;;;;12.24;61.61;101753.63;5040166;28;45304;-64
2023/04/18 02:40:47;;;;;;;;;66.75;52.00;;;;;12.23;60.69;101760.75;5047399;28;45183;-62
2023/04/18 02:43:13;;;;;;;;;70.00;51.25;;;;;12.19;61.46;101745.41;5049758;28;55684;-63
2023/04/18 02:45:38;;;;;;;;;66.25;51.25;;;;;12.16;61.57;101748.00;5049140;28;45901;-63
2023/04/18 02:48:03;;;;;;;;;68.50;52.00;;;;;12.15;61.00;101756.88;5049609;28;45059;-62
2023/04/18 02:50:29;;;;;;;;;66.75;51.00;;;;;12.04;60.98;101740.41;5047991;28;45526;-62
2023/04/18 02:52:55;;;;;;;;;71.75;51.75;;;;;12.01;60.72;101737.66;5049824;28;45207;-63
2023/04/18 02:55:21;;;;;;;;;66.50;53.00;;;;;12.05;61.61;101742.25;5048467;28;45287;-61
2023/04/18 02:57:46;;;;;;;;;72.25;53.50;;;;;12.06;61.05;101738.72;5022044;28;45319;-63
2023/04/18 03:00:12;;;;;;;;;64.50;52.25;;;;;12.08;61.29;101741.47;5027292;28;45502;-62
2023/04/18 03:02:38;;;;;;;;;72.00;54.25;;;;;12.04;60.66;101743.09;5040985;28;45530;-63
2023/04/18 03:05:04;;;;;;;;;72.50;55.75;;;;;11.96;61.47;101732.13;5050451;28;46032;-62
2023/04/18 03:07:29;;;;;;;;;70.25;53.25;;;;;12.03;61.19;101748.38;5045595;28;45330;-64
2023/04/18 03:09:55;;;;;;;;;69.00;52.25;;;;;12.00;60.98;101742.94;5034200;28;47329;-64
2023/04/18 03:12:20;;;;;;;;;70.50;52.25;;;;;11.94;62.29;101739.16;5028812;28;45463;-63
2023/04/18 03:14:45;;;;;;;;;69.50;54.00;;;;;11.89;61.16;101740.72;5034275;28;45567;-63
2023/04/18 03:17:11;;;;;;;;;67.50;53.00;;;;;11.92;61.66;101739.97;5034300;28;46577;-63
2023/04/18 03:19:36;;;;;;;;;70.25;52.50;;;;;11.88;61.02;101733.56;5033898;28;46287;-63
2023/04/18 03:22:02;;;;;;;;;64.25;51.00;;;;;11.90;61.20;101742.56;5000216;28;45910;-62
2023/04/18 03:24:27;;;;;;;;;71.25;54.00;;;;;11.81;61.41;101731.50;5004536;28;45462;-63
2023/04/18 03:26:53;;;;;;;;;71.75;53.00;;;;;11.51;62.18;101681.31;5033326;28;45520;-63
2023/04/18 03:29:18;;;;;;;;;72.00;53.50;;;;;11.84;61.92;101738.75;5030249;28;45594;-63
2023/04/18 03:31:43;;;;;;;;;69.25;52.00;;;;;11.82;61.59;101740.47;5034038;28;45395;-61
2023/04/18 03:34:09;;;;;;;;;70.25;52.75;;;;;11.80;61.86;101733.28;5033562;28;50564;-62
2023/04/18 03:36:34;;;;;;;;;68.00;51.25;;;;;11.79;61.80;101742.16;5027786;28;45702;-63
2023/04/18 03:39:00;;;;;;;;;67.25;52.25;;;;;11.70;61.89;101717.72;5022761;28;47296;-62
2023/04/18 03:41:25;;;;;;;;;66.75;54.25;;;;;11.79;61.79;101735.91;5030473;28;45454;-61
2023/04/18 03:43:50;;;;;;;;;64.75;51.75;;;;;11.79;61.77;101730.53;5033960;28;45424;-62
2023/04/18 03:46:16;;;;;;;;;69.25;55.25;;;;;11.80;61.77;101743.09;5025718;28;45444;-61
2023/04/18 03:48:41;;;;;;;;;68.25;52.25;;;;;11.76;62.39;101733.09;5033963;28;45703;-63
2023/04/18 03:51:07;;;;;;;;;58.00;48.50;;;;;11.76;62.13;101735.78;5033672;28;45426;-63
2023/04/18 03:53:32;;;;;;;;;72.75;52.25;;;;;11.74;62.46;101740.16;5034190;28;46200;-62
2023/04/18 03:55:57;;;;;;;;;70.25;54.00;;;;;11.70;62.06;101727.53;5033723;28;45353;-63
2023/04/18 03:58:23;;;;;;;;;71.00;53.75;;;;;11.70;62.29;101736.47;5027556;28;45377;-63
2023/04/18 04:00:51;;;;;;;;;69.75;52.50;;;;;11.66;62.03;101737.19;5036019;28;45452;-62
2023/04/18 04:03:18;;;;;;;;;71.50;53.25;;;;;11.62;62.58;101721.88;5035417;28;45391;-61
2023/04/18 04:05:43;;;;;;;;;65.75;51.50;;;;;11.58;62.38;101717.25;5021726;28;45559;-63
2023/04/18 04:08:08;;;;;;;;;75.75;56.00;;;;;11.66;63.12;101728.25;5025184;28;45440;-63
2023/04/18 04:10:34;;;;;;;;;71.75;50.25;;;;;11.66;63.07;101729.16;5006017;28;45852;-63
2023/04/18 04:13:00;;;;;;;;;73.25;53.50;;;;;11.66;63.12;101722.91;5030590;28;45300;-63
2023/04/18 04:15:25;;;;;;;;;70.75;54.00;;;;;11.64;62.86;101725.53;5031460;28;45558;-63
2023/04/18 04:17:50;;;;;;;;;69.75;54.75;;;;;11.57;63.32;101711.00;5027885;28;45592;-63
2023/04/18 04:20:21;;;;;;;;;70.00;50.25;;;;;11.60;63.30;101726.28;5021796;28;45578;-63
2023/04/18 04:22:47;;;;;;;;;71.00;53.75;;;;;11.57;63.15;101719.03;5024724;28;46185;-64
2023/04/18 04:25:12;;;;;;;;;71.25;53.00;;;;;11.60;63.05;101719.16;5033105;28;45280;-62
2023/04/18 04:27:38;;;;;;;;;75.50;54.00;;;;;11.58;62.88;101717.25;5033335;28;46069;-63
2023/04/18 04:30:05;;;;;;;;;74.50;59.00;;;;;11.59;63.88;101717.31;5004256;28;45791;-63
2023/04/18 04:32:31;;;;;;;;;69.00;53.25;;;;;11.57;63.90;101721.72;5025063;28;45517;-63
2023/04/18 04:34:57;;;;;;;;;72.50;56.00;;;;;11.56;63.63;101722.56;5033163;28;45414;-66
2023/04/18 04:37:22;;;;;;;;;71.00;53.25;;;;;11.55;63.70;101726.09;5030193;28;45644;-61
2023/04/18 04:39:47;;;;;;;;;76.50;55.00;;;;;11.53;64.00;101717.09;5032673;28;45479;-63
2023/04/18 04:42:13;;;;;;;;;71.75;54.75;;;;;11.51;63.38;101717.88;5033104;28;45693;-63
2023/04/18 04:44:40;;;;;;;;;73.25;56.25;;;;;11.50;64.27;101724.09;5032784;28;46352;-62
2023/04/18 04:47:06;;;;;;;;;70.00;54.25;;;;;11.38;63.92;101703.13;5025602;28;46585;-62
2023/04/18 04:49:31;;;;;;;;;69.75;55.00;;;;;11.50;63.73;101729.44;5007315;28;45529;-62
2023/04/18 04:51:56;;;;;;;;;76.50;63.00;;;;;11.42;63.79;101718.47;5031446;28;48257;-63
2023/04/18 04:54:21;;;;;;;;;73.75;56.50;;;;;11.49;64.23;101724.97;5020715;28;45584;-63
2023/04/18 04:56:47;;;;;;;;;74.75;55.50;;;;;11.45;64.54;101729.28;5025488;28;46432;-63
2023/04/18 04:59:12;;;;;;;;;74.00;55.75;;;;;11.43;63.74;101733.63;5028376;28;45538;-63
2023/04/18 05:01:38;;;;;;;;;74.75;58.25;;;;;11.39;64.60;101721.00;5025890;28;45404;-64
2023/04/18 05:04:04;;;;;;;;;73.00;55.25;;;;;11.40;64.77;101725.50;5032771;28;45459;-62
2023/04/18 05:06:30;;;;;;;;;74.50;55.00;;;;;11.42;64.51;101731.84;5031195;28;46426;-62
2023/04/18 05:08:56;;;;;;;;;75.00;57.75;;;;;11.42;64.94;101727.38;5030538;28;45541;-62
2023/04/18 05:11:22;;;;;;;;;68.75;52.50;;;;;11.47;64.15;101726.66;5021801;28;46021;-65
2023/04/18 05:13:47;;;;;;;;;70.25;53.50;;;;;11.46;64.84;101727.50;5027462;28;45668;-64
2023/04/18 05:16:13;;;;;;;;;70.00;56.00;;;;;11.44;64.08;101725.69;5032857;28;45582;-64
2023/04/18 05:18:40;;;;;;;;;71.00;54.75;;;;;11.43;64.50;101728.28;5028636;28;45544;-63
2023/04/18 05:21:05;;;;;;;;;74.25;58.50;;;;;11.40;64.72;101715.72;5022753;28;45582;-63
2023/04/18 05:23:31;;;;;;;;;75.25;58.25;;;;;11.44;64.63;101722.09;5032445;28;45511;-61
2023/04/18 05:25:57;;;;;;;;;75.25;56.00;;;;;11.41;64.41;101714.84;5013985;28;46403;-61
2023/04/18 05:28:24;;;;;;;;;72.75;54.25;;;;;11.42;64.46;101718.47;5039934;28;45168;-62
2023/04/18 05:30:50;;;;;;;;;72.75;55.50;;;;;11.44;64.50;101712.28;5042772;28;45122;-61
2023/04/18 05:33:16;;;;;;;;;78.50;55.75;;;;;11.51;64.40;101731.28;5038229;28;45068;-64
2023/04/18 05:35:41;;;;;;;;;78.75;59.50;;;;;11.54;64.62;101728.72;5042646;28;45735;-63
2023/04/18 05:38:07;;;;;;;;;73.50;53.75;;;;;11.53;64.61;101733.16;5051625;28;45204;-62
2023/04/18 05:40:32;;;;;;;;;73.25;52.25;;;;;11.41;64.50;101712.16;5039243;28;45388;-62
2023/04/18 05:42:59;;;;;;;;;74.00;59.25;;;;;11.46;64.32;101717.72;5047784;28;44997;-62
2023/04/18 05:45:24;;;;;;;;;66.00;54.25;;;;;11.56;63.86;101727.91;5052133;28;45580;-60
2023/04/18 05:47:50;;;;;;;;;74.00;56.25;;;;;11.58;63.98;101730.63;5052256;28;44856;-62
2023/04/18 05:50:15;;;;;;;;;75.75;58.25;;;;;11.58;63.74;101723.53;5053323;28;45045;-62
2023/04/18 05:52:41;;;;;;;;;80.25;66.50;;;;;11.59;63.64;101733.38;5038469;28;45400;-63
2023/04/18 05:55:06;;;;;;;;;75.75;54.25;;;;;11.50;63.21;101721.41;5047997;28;47126;-63
2023/04/18 05:57:32;;;;;;;;;72.50;56.50;;;;;11.61;63.47;101733.44;5052746;28;45263;-62
2023/04/18 05:59:57;;;;;;;;;71.00;53.75;;;;;11.57;63.82;101727.06;5043847;28;45664;-63
2023/04/18 06:02:23;;;;;;;;;74.25;55.25;;;;;11.62;63.61;101725.47;5045199;28;45227;-63
2023/04/18 06:04:48;;;;;;;;;67.25;53.75;;;;;11.61;63.41;101728.09;5053530;28;45708;-63
2023/04/18 06:07:14;;;;;;;;;75.50;58.25;;;;;11.65;63.98;101738.06;5053162;28;45094;-62
2023/04/18 06:09:39;;;;;;;;;71.75;56.00;;;;;11.68;63.87;101731.91;5053089;28;45232;-64
2023/04/18 06:12:05;;;;;;;;;80.25;64.00;;;;;11.64;63.33;101720.19;5053220;28;45324;-62
2023/04/18 06:14:31;;;;;;;;;71.50;55.25;;;;;11.70;63.37;101736.47;5052974;28;46219;-62
2023/04/18 06:16:56;;;;;;;;;71.75;55.00;;;;;11.71;63.02;101732.91;5046936;28;45083;-63
2023/04/18 06:19:21;;;;;;;;;73.50;54.00;;;;;11.70;63.34;101732.91;5045496;28;45376;-62
2023/04/18 06:21:47;;;;;;;;;72.00;55.00;;;;;11.72;63.53;101742.78;5047558;28;45119;-63
2023/04/18 06:24:13;;;;;;;;;74.75;57.25;;;;;11.71;62.88;101734.69;5044115;28;45188;-64
2023/04/18 06:26:38;;;;;;;;;75.25;55.75;;;;;11.73;63.08;101739.28;5046786;28;45496;-65
2023/04/18 06:29:04;;;;;;;;;74.25;59.25;;;;;11.73;62.63;101727.63;5048536;28;45129;-65
2023/04/18 06:31:29;;;;;;;;;68.75;53.50;;;;;11.74;63.00;101716.06;5046909;28;45398;-64
2023/04/18 06:33:54;;;;;;;;;73.25;55.00;;;;;11.75;62.98;101713.47;5050748;28;45719;-63
2023/04/18 06:36:20;;;;;;;;;72.00;55.00;;;;;11.79;62.87;101709.13;5048437;28;44945;-64
2023/04/18 06:38:45;;;;;;;;;76.25;55.00;;;;;11.91;62.55;101712.31;5051912;28;45259;-65
2023/04/18 06:41:13;;;;;;;;;68.50;50.50;;;;;12.01;62.26;101724.25;5043913;28;45146;-63
2023/04/18 06:43:39;;;;;;;;;73.50;54.25;;;;;11.92;61.85;101692.69;5051756;28;45444;-64
2023/04/18 06:46:05;;;;;;;;;69.00;51.00;;;;;12.06;62.13;101711.00;5050572;28;45531;-63
2023/04/18 06:48:30;;;;;;;;;65.25;52.25;;;;;12.14;62.16;101715.81;5045209;28;45209;-62
2023/04/18 06:50:56;;;;;;;;;75.75;62.25;;;;;12.01;61.19;101692.13;5040750;28;45211;-62
2023/04/18 06:53:21;;;;;;;;;78.25;54.50;;;;;12.23;61.53;101725.03;5023758;28;46026;-62
2023/04/18 06:55:47;;;;;;;;;70.25;52.25;;;;;12.24;61.75;101724.16;5042673;28;45287;-63
2023/04/18 06:58:14;;;;;;;;;69.25;53.25;;;;;12.23;61.29;101723.25;5021235;28;45348;-63
2023/04/18 07:00:46;;;;;;;;;69.25;54.25;;;;;12.25;62.14;101724.19;5034605;28;45594;-63
2023/04/18 07:03:11;;;;;;;;;69.25;54.00;;;;;12.30;61.48;101727.94;5007307;28;45541;-63
2023/04/18 07:05:38;;;;;;;;;74.50;56.00;;;;;12.43;61.39;101725.72;5025679;28;45554;-62
2023/04/18 07:08:03;;;;;;;;;71.25;53.50;;;;;12.49;61.08;101721.47;5031617;28;45413;-62
2023/04/18 07:10:29;;;;;;;;;73.50;54.00;;;;;12.62;59.95;101728.16;5030864;28;45388;-63
2023/04/18 07:12:54;;;;;;;;;75.25;54.25;;;;;12.62;60.04;101725.50;5023309;28;47114;-63
2023/04/18 07:15:20;;;;;;;;;72.00;54.50;;;;;12.43;60.67;101681.06;5025741;28;45528;-62
2023/04/18 07:17:45;;;;;;;;;71.00;53.50;;;;;12.72;59.85;101724.94;5017530;28;45650;-63
2023/04/18 07:20:11;;;;;;;;;69.75;53.25;;;;;12.80;59.30;101719.84;5013075;28;45476;-63
2023/04/18 07:22:36;;;;;;;;;71.50;54.00;;;;;12.84;59.83;101727.09;5028222;28;45546;-62
2023/04/18 07:25:02;;;;;;;;;68.25;51.75;;;;;12.85;59.49;101730.69;5033742;28;45530;-62
2023/04/18 07:27:27;;;;;;;;;72.00;53.75;;;;;12.91;59.50;101734.47;5028135;28;45474;-64
2023/04/18 07:29:52;;;;;;;;;69.75;53.25;;;;;12.89;59.63;101724.56;5043073;28;45371;-63
2023/04/18 07:32:18;;;;;;;;;71.00;53.75;;;;;12.97;59.42;101741.81;5048542;28;45280;-63
2023/04/18 07:34:43;;;;;;;;;70.50;54.00;;;;;12.99;58.86;101726.69;5044127;28;45152;-65
2023/04/18 07:37:09;;;;;;;;;72.00;52.75;;;;;12.97;58.70;101723.06;5049734;28;45041;-63
2023/04/18 07:39:35;;;;;;;;;71.50;54.75;;;;;13.06;58.93;101725.09;5050072;28;45172;-63
2023/04/18 07:42:02;;;;;;;;;70.00;54.50;;;;;13.13;59.14;101723.53;5042093;28;46195;-64
2023/04/18 07:44:27;;;;;;;;;66.00;51.50;;;;;13.13;58.72;101713.69;5036354;28;44964;-63
2023/04/18 07:46:53;;;;;;;;;66.75;52.50;;;;;13.18;58.37;101708.47;5026279;28;45659;-63
2023/04/18 07:49:18;;;;;;;;;71.25;56.75;;;;;13.20;57.70;101717.47;5030084;28;45417;-64
2023/04/18 07:51:43;;;;;;;;;72.25;53.75;;;;;13.24;57.87;101714.94;5015565;28;45673;-65
2023/04/18 07:54:10;;;;;;;;;71.25;53.00;;;;;13.27;57.98;101719.50;5031518;28;45411;-61
2023/04/18 07:56:35;;;;;;;;;64.00;51.25;;;;;13.29;57.84;101717.78;5033153;28;45641;-63
2023/04/18 07:59:01;;;;;;;;;64.75;50.00;;;;;13.27;58.16;101716.81;5033909;28;45415;-63
2023/04/18 08:01:26;;;;;;;;;69.00;52.25;;;;;13.26;57.83;101709.63;5023263;28;45625;-63
2023/04/18 08:03:53;;;;;;;;;64.00;50.75;;;;;13.29;57.40;101712.41;5018918;28;45722;-64
2023/04/18 08:06:19;;;;;;;;;70.25;53.00;;;;;13.28;57.68;101700.78;5008014;28;45447;-67
2023/04/18 08:08:45;;;;;;;;;67.50;52.25;;;;;13.41;57.04;101703.84;5031228;28;45558;-65
2023/04/18 08:11:10;;;;;;;;;67.75;51.00;;;;;13.43;57.22;101705.72;5033605;28;46052;-64
2023/04/18 08:13:36;;;;;;;;;64.25;48.25;;;;;13.50;56.91;101709.50;5032612;28;45297;-64
2023/04/18 08:16:01;;;;;;;;;67.50;49.50;;;;;13.53;56.73;101700.63;5037444;28;44898;-64
2023/04/18 08:18:27;;;;;;;;;71.25;52.50;;;;;13.58;56.91;101694.53;5050707;28;45025;-64
2023/04/18 08:20:52;;;;;;;;;67.50;53.00;;;;;13.66;56.32;101702.81;5049231;28;45183;-63
2023/04/18 08:23:17;;;;;;;;;69.50;52.00;;;;;13.75;55.76;101691.44;5036136;28;45116;-63
2023/04/18 08:25:43;;;;;;;;;71.25;51.50;;;;;13.92;55.92;101698.16;5039433;28;45090;-62
2023/04/18 08:28:08;;;;;;;;;67.25;51.00;;;;;14.04;55.67;101694.94;5048897;28;45117;-63
2023/04/18 08:30:34;;;;;;;;;63.75;48.75;;;;;14.12;54.99;101695.13;5036369;28;45353;-63
2023/04/18 08:33:00;;;;;;;;;67.50;51.50;;;;;14.19;54.56;101692.66;5040744;28;45745;-62
2023/04/18 08:35:25;;;;;;;;;66.75;51.75;;;;;14.27;54.59;101690.19;5051335;28;45171;-63
2023/04/18 08:37:51;;;;;;;;;67.50;51.75;;;;;14.36;54.39;101687.72;5051270;28;45160;-64
2023/04/18 08:40:17;;;;;;;;;64.25;46.25;;;;;14.40;53.62;101682.41;5044848;28;45853;-64
2023/04/18 08:42:46;;;;;;;;;63.50;47.00;;;;;14.45;53.61;101675.38;5047930;28;45234;-62
2023/04/18 08:45:13;;;;;;;;;69.25;53.25;;;;;14.34;53.25;101670.63;5049705;28;45193;-63
2023/04/18 08:47:39;;;;;;;;;63.25;48.75;;;;;14.29;53.42;101668.72;5031056;28;45219;-63
2023/04/18 08:50:06;;;;;;;;;68.50;51.50;;;;;14.36;53.28;101687.72;5046155;28;45315;-64
2023/04/18 08:52:34;;;;;;;;;67.50;51.00;;;;;14.39;53.46;101694.97;5046589;28;45123;-64
2023/04/18 08:55:01;;;;;;;;;67.25;50.25;;;;;14.39;53.06;101686.88;5049943;28;45037;-64
2023/04/18 08:57:27;;;;;;;;;67.50;50.50;;;;;14.39;53.25;101684.19;5058950;28;45124;-63
2023/04/18 08:59:53;;;;;;;;;71.00;53.25;;;;;14.39;53.26;101684.19;5050567;28;45897;-64
2023/04/18 09:02:21;;;;;;;;;65.75;50.50;;;;;14.28;52.77;101669.56;5050876;28;45140;-63
2023/04/18 09:04:51;;;;;;;;;63.00;49.50;;;;;14.35;53.05;101679.59;5051453;28;45022;-62
2023/04/18 09:07:19;;;;;;;;;65.25;47.75;;;;;14.35;53.18;101663.47;5054474;28;45123;-63
2023/04/18 09:09:51;;;;;;;;;69.50;52.00;;;;;14.52;52.90;101667.50;5059633;28;45300;-64
2023/04/18 09:12:21;;;;;;;;;67.25;51.00;;;;;14.63;51.85;101674.97;5040545;28;45118;-63
2023/04/18 09:14:49;;;;;;;;;62.25;47.75;;;;;14.67;51.93;101671.50;5052647;28;45045;-63
2023/04/18 09:17:36;;;;;;;;;62.25;48.00;;;;;14.65;51.79;101659.75;5053596;28;45139;-64
2023/04/18 09:20:08;;;;;;;;;62.50;48.50;;;;;14.77;51.31;101668.13;5051135;28;46825;-64
2023/04/18 09:22:56;;;;;;;;;55.25;44.00;;;;;14.78;51.31;101664.56;5054067;28;45143;-64
2023/04/18 09:25:38;;;;;;;;;65.25;50.25;;;;;14.80;51.38;101660.16;5050708;28;45025;-64
2023/04/18 09:28:19;;;;;;;;;113.00;104.25;;;;;14.87;51.05;101635.19;5044118;28;45226;-63
2023/04/18 09:30:45;;;;;;;;;67.25;53.00;;;;;15.15;50.63;101643.88;5053008;28;45036;-64
2023/04/18 09:33:11;;;;;;;;;64.00;51.50;;;;;15.35;50.79;101643.41;5049603;28;45102;-64
2023/04/18 09:35:37;;;;;;;;;62.00;46.00;;;;;15.48;50.22;101645.50;5053012;28;45049;-66
2023/04/18 09:38:04;;;;;;;;;63.75;49.00;;;;;15.51;49.89;101626.69;5052965;28;45209;-62
2023/04/18 09:40:31;;;;;;;;;63.25;46.75;;;;;15.71;49.84;101631.59;5051124;28;45184;-64
2023/04/18 09:42:57;;;;;;;;;60.00;47.50;;;;;15.84;48.72;101637.25;5046401;28;44964;-62
2023/04/18 09:45:23;;;;;;;;;64.75;51.25;;;;;15.91;48.41;101632.88;5037162;28;47436;-64
2023/04/18 09:47:50;;;;;;;;;61.50;48.25;;;;;15.89;48.68;101633.72;5051936;28;45069;-64
2023/04/18 09:50:17;;;;;;;;;61.00;49.25;;;;;15.89;48.69;101634.66;5053655;28;45530;-65
2023/04/18 09:52:43;;;;;;;;;69.50;54.75;;;;;15.96;48.12;101630.28;5053413;28;45006;-63
2023/04/18 09:55:12;;;;;;;;;62.50;50.50;;;;;16.01;46.99;101620.50;5052962;28;45013;-63
2023/04/18 09:57:39;;;;;;;;;64.75;50.75;;;;;16.06;46.99;101615.19;5049071;28;45475;-63
2023/04/18 10:00:18;;;;;;;;;58.50;47.00;;;;;16.19;46.84;101609.13;5034434;28;45681;-62
2023/04/18 10:02:52;;;;;;;;;64.50;52.00;;;;;16.29;46.76;101621.88;5038753;28;45099;-63
2023/04/18 10:05:21;;;;;;;;;63.75;52.50;;;;;16.33;46.15;101615.66;5043118;28;45001;-64
2023/04/18 10:07:48;;;;;;;;;67.00;49.75;;;;;16.36;46.19;101615.69;5026993;28;45073;-63
2023/04/18 10:10:14;;;;;;;;;64.25;48.75;;;;;16.19;46.04;101565.97;5050751;28;45401;-63
2023/04/18 10:12:40;;;;;;;;;63.25;47.00;;;;;16.48;46.34;101609.63;5029004;28;45283;-64
2023/04/18 10:15:08;;;;;;;;;65.50;51.00;;;;;16.56;46.01;101604.31;5050811;28;45476;-64
2023/04/18 10:17:42;;;;;;;;;70.00;54.50;;;;;16.67;45.93;101608.09;5039176;28;45191;-63
2023/04/18 10:20:09;;;;;;;;;66.75;52.50;;;;;16.72;45.81;101602.78;5040123;28;45542;-65
2023/04/18 10:22:35;;;;;;;;;61.25;49.00;;;;;16.73;45.20;101600.09;5052645;28;45097;-63
2023/04/18 10:25:01;;;;;;;;;63.25;51.75;;;;;16.84;45.42;101589.44;5051079;28;45193;-63
2023/04/18 10:27:48;;;;;;;;;65.25;50.50;;;;;16.95;45.82;101584.25;5049467;28;45296;-63
2023/04/18 10:30:17;;;;;;;;;59.75;49.00;;;;;17.04;45.02;101592.47;5038555;28;45753;-63
2023/04/18 10:32:44;;;;;;;;;65.50;50.00;;;;;17.04;44.49;101568.16;5043028;28;45131;-63
2023/04/18 10:35:10;;;;;;;;;67.75;52.50;;;;;17.08;44.82;101567.31;5052294;28;45215;-63
2023/04/18 10:37:51;;;;;;;;;67.00;50.25;;;;;17.14;44.62;101571.88;5038312;28;44998;-63
2023/04/18 10:40:30;;;;;;;;;74.25;57.00;;;;;17.18;44.63;101568.34;5034738;28;46157;-63
2023/04/18 10:42:55;;;;;;;;;60.00;48.25;;;;;17.26;44.19;101565.72;5057584;28;45162;-63
2023/04/18 10:45:24;;;;;;;;;57.50;44.75;;;;;17.35;43.60;101568.53;5047409;28;45020;-64
2023/04/18 10:47:49;;;;;;;;;68.25;50.25;;;;;17.36;43.58;101556.84;5047527;28;45089;-63
2023/04/18 10:50:16;;;;;;;;;61.50;50.25;;;;;17.36;44.32;101561.34;5052342;28;46033;-63
2023/04/18 10:52:42;;;;;;;;;61.00;46.75;;;;;17.35;43.98;101560.41;5047644;28;45274;-65
2023/04/18 10:55:23;;;;;;;;;61.50;50.50;;;;;17.31;42.95;101551.38;5021585;28;45009;-64
2023/04/18 10:57:50;;;;;;;;;65.00;50.50;;;;;17.28;43.47;101545.03;5042039;28;45137;-64
2023/04/18 11:00:19;;;;;;;;;58.50;45.00;;;;;17.25;43.54;101542.31;5051414;28;46820;-64
2023/04/18 11:02:55;;;;;;;;;63.25;50.00;;;;;17.22;43.74;101540.47;5044521;28;45254;-64
2023/04/18 11:05:23;;;;;;;;;63.25;50.00;;;;;17.31;43.93;101543.28;5042716;28;45150;-63